Time;durP1;ratioP1;P1;durP2;ratioP2;P2;SDS_P1;SDS_P2;PMS_P1;PMS_P2;Temp;Humidity;BMP_temperature;BMP_pressure;BME280_temperature;BME280_humidity;BME280_pressure;Samples;Min_cycle;Max_cycle;Signal;HPM_P1;HPM_P2
2020/12/31 00:00:38;;;;;;;9.63;5.70;;;4.30;92.60;;;;;;2091104;28;20033;-80
2020/12/31 00:01:39;;;;;;;8.77;5.38;;;4.20;92.60;;;;;;2098786;28;20119;-80
2020/12/31 00:02:39;;;;;;;8.00;5.07;;;4.30;92.60;;;;;;2090481;28;20036;-80
2020/12/31 00:03:40;;;;;;;8.88;5.32;;;4.30;92.70;;;;;;2082113;28;20021;-80
2020/12/31 00:04:41;;;;;;;8.30;5.45;;;4.20;92.60;;;;;;2090317;28;20033;-81
2020/12/31 00:05:42;;;;;;;7.43;4.70;;;4.30;92.60;;;;;;2098806;28;20035;-81
2020/12/31 00:06:42;;;;;;;7.65;4.55;;;4.20;92.60;;;;;;2098808;28;20029;-82
2020/12/31 00:07:43;;;;;;;7.45;4.70;;;4.30;92.60;;;;;;2090531;28;20033;-81
2020/12/31 00:08:44;;;;;;;8.65;4.95;;;4.20;92.60;;;;;;2082122;28;20550;-81
2020/12/31 00:09:44;;;;;;;7.63;5.10;;;4.30;92.70;;;;;;2082105;28;20511;-81
2020/12/31 00:10:45;;;;;;;8.38;5.15;;;4.20;92.60;;;;;;2082207;28;20377;-81
2020/12/31 00:11:46;;;;;;;7.72;4.88;;;4.20;92.90;;;;;;2082336;28;20136;-81
2020/12/31 00:12:47;;;;;;;7.88;4.93;;;4.20;92.70;;;;;;2098733;28;20043;-81
2020/12/31 00:13:47;;;;;;;7.25;4.75;;;4.20;92.60;;;;;;2098609;28;20028;-81
2020/12/31 00:14:48;;;;;;;6.70;4.13;;;4.20;92.60;;;;;;2090401;28;20115;-81
2020/12/31 00:15:49;;;;;;;6.65;4.38;;;4.20;92.60;;;;;;2090317;28;20529;-81
2020/12/31 00:16:50;;;;;;;6.93;4.05;;;4.20;92.60;;;;;;2082324;28;20030;-81
2020/12/31 00:17:51;;;;;;;6.82;4.40;;;4.20;92.60;;;;;;2082046;28;20132;-81
2020/12/31 00:18:51;;;;;;;7.70;4.25;;;4.20;92.60;;;;;;2090578;28;20511;-80
2020/12/31 00:19:52;;;;;;;7.50;4.07;;;4.20;92.90;;;;;;2098620;28;20055;-81
2020/12/31 00:20:52;;;;;;;7.40;4.38;;;4.20;92.60;;;;;;2090549;28;20119;-81
2020/12/31 00:21:54;;;;;;;7.40;4.50;;;4.20;92.60;;;;;;2074122;28;20030;-81
2020/12/31 00:22:54;;;;;;;7.03;4.57;;;4.20;92.60;;;;;;2082007;28;20026;-81
2020/12/31 00:23:55;;;;;;;6.03;4.07;;;4.20;92.60;;;;;;2091037;28;20037;-81
2020/12/31 00:24:55;;;;;;;6.32;4.30;;;4.20;92.60;;;;;;2090299;28;20492;-81
2020/12/31 00:25:56;;;;;;;6.40;3.92;;;4.20;92.60;;;;;;2098762;28;20056;-81
2020/12/31 00:26:57;;;;;;;7.32;4.00;;;4.20;92.60;;;;;;2098776;28;20406;-81
2020/12/31 00:27:57;;;;;;;6.43;4.00;;;4.20;92.60;;;;;;2090940;28;20458;-81
2020/12/31 00:28:58;;;;;;;6.55;4.10;;;4.20;92.90;;;;;;2108321;28;20017;-80
2020/12/31 00:29:59;;;;;;;7.88;3.90;;;4.20;92.60;;;;;;2100321;28;20033;-80
2020/12/31 00:31:00;;;;;;;7.18;4.20;;;4.20;92.60;;;;;;2092331;28;20026;-80
2020/12/31 00:32:00;;;;;;;6.30;4.18;;;4.20;92.60;;;;;;2100945;28;20025;-81
2020/12/31 00:33:01;;;;;;;5.85;3.78;;;4.20;92.60;;;;;;2108770;28;20059;-81
2020/12/31 00:34:03;;;;;;;7.20;4.53;;;4.20;92.60;;;;;;2100221;28;20155;-80
2020/12/31 00:35:05;;;;;;;7.80;4.00;;;4.30;92.60;;;;;;2095358;28;20081;-81
2020/12/31 00:36:06;;;;;;;6.13;3.60;;;4.20;92.60;;;;;;2090565;28;20047;-81
2020/12/31 00:37:06;;;;;;;6.97;4.22;;;4.20;92.60;;;;;;2090883;28;20127;-81
2020/12/31 00:38:07;;;;;;;6.13;4.03;;;4.20;92.60;;;;;;2090556;28;20497;-81
2020/12/31 00:39:08;;;;;;;6.60;4.38;;;4.20;92.60;;;;;;2087524;28;20020;-81
2020/12/31 00:40:08;;;;;;;6.20;3.90;;;4.20;92.60;;;;;;2100163;28;20044;-81
2020/12/31 00:41:09;;;;;;;7.35;4.22;;;4.20;92.60;;;;;;2116849;28;20017;-80
2020/12/31 00:42:09;;;;;;;6.43;3.90;;;4.20;92.60;;;;;;2107521;28;20020;-82
2020/12/31 00:43:10;;;;;;;5.68;3.75;;;4.20;92.60;;;;;;2099521;28;20052;-80
2020/12/31 00:44:11;;;;;;;7.68;4.20;;;4.20;92.60;;;;;;2089464;28;20160;-81
2020/12/31 00:45:12;;;;;;;6.50;3.88;;;4.20;92.60;;;;;;2090599;28;20044;-81
2020/12/31 00:46:13;;;;;;;6.65;4.00;;;4.20;92.60;;;;;;2106982;28;20107;-81
2020/12/31 00:47:13;;;;;;;5.70;3.78;;;4.20;92.60;;;;;;2106910;28;20406;-81
2020/12/31 00:48:14;;;;;;;7.15;4.50;;;4.20;92.60;;;;;;2091067;28;20056;-80
2020/12/31 00:49:14;;;;;;;7.18;4.10;;;4.20;92.60;;;;;;2090415;28;20021;-80
2020/12/31 00:50:15;;;;;;;5.80;3.70;;;4.20;92.60;;;;;;2090434;28;20371;-81
2020/12/31 00:51:16;;;;;;;5.93;3.80;;;4.20;92.60;;;;;;2106909;28;20028;-81
2020/12/31 00:52:16;;;;;;;6.07;3.90;;;4.20;92.60;;;;;;2107002;28;20067;-81
2020/12/31 00:53:17;;;;;;;5.88;3.88;;;4.20;92.60;;;;;;2091050;28;20032;-81
2020/12/31 00:54:18;;;;;;;5.78;3.70;;;4.20;92.70;;;;;;2106912;28;20028;-81
2020/12/31 00:55:18;;;;;;;5.78;3.92;;;4.20;92.70;;;;;;2098726;28;20037;-81
2020/12/31 00:56:19;;;;;;;6.18;3.90;;;4.20;92.70;;;;;;2089332;28;20506;-81
2020/12/31 00:57:20;;;;;;;6.18;3.47;;;4.20;92.70;;;;;;2081757;28;20491;-81
2020/12/31 00:58:20;;;;;;;6.60;3.55;;;4.20;92.60;;;;;;2081987;28;20033;-81
2020/12/31 00:59:21;;;;;;;5.88;3.38;;;4.20;92.70;;;;;;2090999;28;20487;-81
2020/12/31 01:00:22;;;;;;;6.93;3.58;;;4.20;92.70;;;;;;2113186;28;20032;-81
2020/12/31 01:01:22;;;;;;;5.40;3.35;;;4.20;92.70;;;;;;2108446;28;20017;-80
2020/12/31 01:02:23;;;;;;;5.68;3.50;;;4.20;92.70;;;;;;2091998;28;20028;-81
2020/12/31 01:03:23;;;;;;;6.75;3.78;;;4.20;92.70;;;;;;2097918;28;20059;-79
2020/12/31 01:04:24;;;;;;;6.10;3.60;;;4.20;92.70;;;;;;2100194;28;20037;-81
2020/12/31 01:05:25;;;;;;;4.90;3.13;;;4.20;92.70;;;;;;2098602;28;20032;-81
2020/12/31 01:06:25;;;;;;;6.20;3.70;;;4.20;92.70;;;;;;2082677;28;20057;-81
2020/12/31 01:07:26;;;;;;;5.53;3.47;;;4.20;92.70;;;;;;2082532;28;20037;-80
2020/12/31 01:08:27;;;;;;;5.35;3.30;;;4.20;92.70;;;;;;2089966;28;20445;-81
2020/12/31 01:09:27;;;;;;;4.75;3.28;;;4.20;92.70;;;;;;2081850;28;20380;-81
2020/12/31 01:10:28;;;;;;;5.30;3.40;;;4.20;92.70;;;;;;2073740;28;20419;-81
2020/12/31 01:11:28;;;;;;;7.53;4.20;;;4.20;92.70;;;;;;2073547;28;20447;-81
2020/12/31 01:12:29;;;;;;;5.28;3.58;;;4.20;92.70;;;;;;2065261;28;20041;-81
2020/12/31 01:13:30;;;;;;;5.20;3.35;;;4.20;92.70;;;;;;2073611;28;20030;-81
2020/12/31 01:14:31;;;;;;;5.82;3.42;;;4.20;92.70;;;;;;2082291;28;20377;-81
2020/12/31 01:15:31;;;;;;;5.57;3.33;;;4.20;92.70;;;;;;2082332;28;20436;-81
2020/12/31 01:16:32;;;;;;;7.32;3.67;;;4.20;92.70;;;;;;2098214;28;20119;-81
2020/12/31 01:17:33;;;;;;;5.93;3.75;;;4.20;92.70;;;;;;2097926;28;20033;-81
2020/12/31 01:18:37;;;;;;;6.55;3.85;;;4.20;92.70;;;;;;2089788;28;20052;-81
2020/12/31 01:19:38;;;;;;;4.85;3.35;;;4.20;92.70;;;;;;2089730;28;20041;-81
2020/12/31 01:20:39;;;;;;;5.50;3.38;;;4.20;92.70;;;;;;2089702;28;20029;-81
2020/12/31 01:21:46;;;;;;;5.20;3.13;;;4.20;92.70;;;;;;2082114;28;20033;-81
2020/12/31 01:22:47;;;;;;;5.40;3.28;;;4.20;92.70;;;;;;2082189;28;20053;-81
2020/12/31 01:23:47;;;;;;;4.80;2.90;;;4.20;92.70;;;;;;2098123;28;20444;-81
2020/12/31 01:24:48;;;;;;;5.50;3.40;;;4.20;92.70;;;;;;2098047;28;20121;-81
2020/12/31 01:25:51;;;;;;;5.43;3.10;;;4.20;92.70;;;;;;2081621;28;20340;-81
2020/12/31 01:26:52;;;;;;;5.88;3.40;;;4.20;92.70;;;;;;2081793;28;20111;-81
2020/12/31 01:27:52;;;;;;;5.28;3.22;;;4.20;92.70;;;;;;2082283;28;20076;-81
2020/12/31 01:28:53;;;;;;;5.95;3.60;;;4.20;92.70;;;;;;2089847;28;20028;-81
2020/12/31 01:29:53;;;;;;;4.85;2.97;;;4.20;92.70;;;;;;2081644;28;20517;-81
2020/12/31 01:30:54;;;;;;;5.30;2.97;;;4.20;92.70;;;;;;2089621;28;20167;-81
2020/12/31 01:31:55;;;;;;;6.32;3.75;;;4.20;92.70;;;;;;2098088;28;20418;-81
2020/12/31 01:32:56;;;;;;;6.57;3.50;;;4.20;92.70;;;;;;2082053;28;20026;-80
2020/12/31 01:33:57;;;;;;;6.05;3.50;;;4.20;92.70;;;;;;2082162;28;20037;-80
2020/12/31 01:34:58;;;;;;;6.53;3.78;;;4.10;92.70;;;;;;2082106;28;20037;-81
2020/12/31 01:35:58;;;;;;;6.65;4.30;;;4.10;92.70;;;;;;2082115;28;20037;-81
2020/12/31 01:36:59;;;;;;;6.20;3.63;;;4.10;92.70;;;;;;2082039;28;20096;-81
2020/12/31 01:38:01;;;;;;;5.85;3.63;;;4.10;92.70;;;;;;2082117;28;20037;-81
2020/12/31 01:39:02;;;;;;;6.82;3.88;;;4.10;92.70;;;;;;2089475;28;20025;-81
2020/12/31 01:40:03;;;;;;;5.80;3.38;;;4.10;92.70;;;;;;2081460;28;20061;-81
2020/12/31 01:41:03;;;;;;;4.90;3.05;;;4.10;92.70;;;;;;2081352;28;20599;-81
2020/12/31 01:42:05;;;;;;;5.57;3.72;;;4.10;92.70;;;;;;2082046;28;20034;-81
2020/12/31 01:43:06;;;;;;;5.95;3.83;;;4.10;92.70;;;;;;2097785;28;20025;-81
2020/12/31 01:44:10;;;;;;;6.53;3.88;;;4.10;92.80;;;;;;2089659;28;20088;-81
2020/12/31 01:45:11;;;;;;;4.95;3.10;;;4.10;92.80;;;;;;2090087;28;20036;-81
2020/12/31 01:46:12;;;;;;;5.57;3.38;;;4.10;92.80;;;;;;2097895;28;20482;-81
2020/12/31 01:47:13;;;;;;;5.43;3.67;;;4.10;92.80;;;;;;2081820;28;20424;-81
2020/12/31 01:48:14;;;;;;;5.15;3.47;;;4.10;92.80;;;;;;2089572;28;20055;-81
2020/12/31 01:49:20;;;;;;;6.45;3.72;;;4.10;92.80;;;;;;2089722;28;20029;-81
2020/12/31 01:50:21;;;;;;;5.68;3.78;;;4.10;92.80;;;;;;2089010;28;20061;-81
2020/12/31 01:51:21;;;;;;;5.65;3.58;;;4.10;92.80;;;;;;2089673;28;20403;-81
2020/12/31 01:52:23;;;;;;;6.15;3.80;;;4.10;92.80;;;;;;2089712;28;20021;-81
2020/12/31 01:53:23;;;;;;;5.60;3.90;;;4.10;92.80;;;;;;2081333;28;20036;-81
2020/12/31 01:54:24;;;;;;;5.13;3.63;;;4.10;93.00;;;;;;2089928;28;20558;-81
2020/12/31 01:55:25;;;;;;;5.90;3.65;;;4.10;92.80;;;;;;2097863;28;20086;-81
2020/12/31 01:56:33;;;;;;;6.50;3.83;;;4.10;92.80;;;;;;2082135;28;20141;-81
2020/12/31 01:57:35;;;;;;;5.55;3.60;;;4.10;92.80;;;;;;2089281;28;20151;-81
2020/12/31 01:58:36;;;;;;;6.32;3.58;;;4.00;92.80;;;;;;2081440;28;20028;-81
2020/12/31 01:59:36;;;;;;;5.28;3.53;;;4.10;92.80;;;;;;2073019;28;20034;-81
2020/12/31 02:00:37;;;;;;;5.50;3.80;;;4.10;92.80;;;;;;2081349;28;20515;-81
2020/12/31 02:01:38;;;;;;;5.38;3.85;;;4.00;92.80;;;;;;2089527;28;20029;-81
2020/12/31 02:02:38;;;;;;;5.85;3.72;;;4.00;92.80;;;;;;2088777;28;20021;-81
2020/12/31 02:03:39;;;;;;;4.93;3.45;;;4.10;92.80;;;;;;2081307;28;20108;-81
2020/12/31 02:04:41;;;;;;;6.25;3.72;;;4.10;92.90;;;;;;2081264;28;20411;-81
2020/12/31 02:05:44;;;;;;;5.68;3.58;;;4.10;92.80;;;;;;2097820;28;20073;-81
2020/12/31 02:06:45;;;;;;;5.93;3.88;;;4.10;92.80;;;;;;2097297;28;20029;-81
2020/12/31 02:07:47;;;;;;;4.97;3.47;;;4.00;92.80;;;;;;2081492;28;20029;-81
2020/12/31 02:08:48;;;;;;;5.65;3.70;;;4.00;92.80;;;;;;2081981;28;20365;-81
2020/12/31 02:09:49;;;;;;;6.10;3.90;;;4.00;92.80;;;;;;2097593;28;20059;-81
2020/12/31 02:10:49;;;;;;;6.45;3.58;;;4.10;92.90;;;;;;2097886;28;20021;-81
2020/12/31 02:11:50;;;;;;;6.03;3.80;;;4.00;92.80;;;;;;2089549;28;20443;-81
2020/12/31 02:12:52;;;;;;;5.75;4.00;;;4.00;92.80;;;;;;2089111;28;20103;-81
2020/12/31 02:13:53;;;;;;;6.43;3.95;;;4.10;92.90;;;;;;2081243;28;20060;-81
2020/12/31 02:14:55;;;;;;;6.43;4.45;;;4.00;92.80;;;;;;2081155;28;20051;-81
2020/12/31 02:15:56;;;;;;;6.93;4.38;;;4.00;92.80;;;;;;2089361;28;20226;-81
2020/12/31 02:16:58;;;;;;;7.25;4.70;;;4.00;92.80;;;;;;2080962;28;20499;-81
2020/12/31 02:17:58;;;;;;;6.68;4.50;;;4.10;92.90;;;;;;2080717;28;20029;-82
2020/12/31 02:19:01;;;;;;;8.32;4.90;;;4.00;93.10;;;;;;2081940;28;20053;-81
2020/12/31 02:20:02;;;;;;;7.75;5.13;;;4.00;92.80;;;;;;2089371;28;20029;-81
2020/12/31 02:21:03;;;;;;;8.55;5.28;;;4.10;92.80;;;;;;2090047;28;20131;-81
2020/12/31 02:22:04;;;;;;;7.10;5.10;;;4.00;92.80;;;;;;2095457;28;20090;-81
2020/12/31 02:23:04;;;;;;;8.70;5.32;;;4.10;92.80;;;;;;2093830;28;20029;-81
2020/12/31 02:24:07;;;;;;;7.50;5.20;;;4.00;92.80;;;;;;2085169;28;20035;-81
2020/12/31 02:25:08;;;;;;;8.00;5.30;;;4.00;92.80;;;;;;2089378;28;20383;-81
2020/12/31 02:26:08;;;;;;;8.32;5.78;;;4.10;92.80;;;;;;2090070;28;20037;-81
2020/12/31 02:27:09;;;;;;;8.63;5.80;;;4.00;92.80;;;;;;2089906;28;20021;-81
2020/12/31 02:28:09;;;;;;;7.90;5.50;;;4.00;92.80;;;;;;2089852;28;20025;-81
2020/12/31 02:29:11;;;;;;;9.68;6.70;;;4.00;92.80;;;;;;2089878;28;20044;-81
2020/12/31 02:30:12;;;;;;;8.32;6.43;;;4.00;92.80;;;;;;2097577;28;20414;-81
2020/12/31 02:31:13;;;;;;;8.90;6.28;;;4.00;92.90;;;;;;2097649;28;20028;-81
2020/12/31 02:32:13;;;;;;;9.60;6.78;;;4.00;92.90;;;;;;2081116;28;20495;-81
2020/12/31 02:33:14;;;;;;;9.52;6.82;;;4.00;92.90;;;;;;2089124;28;20033;-81
2020/12/31 02:34:15;;;;;;;8.93;6.30;;;4.00;92.90;;;;;;2106038;28;20020;-81
2020/12/31 02:35:16;;;;;;;8.85;6.57;;;4.00;92.90;;;;;;2105670;28;20497;-81
2020/12/31 02:36:18;;;;;;;9.40;6.35;;;4.00;92.90;;;;;;2089370;28;20029;-81
2020/12/31 02:37:19;;;;;;;9.10;6.32;;;4.00;92.90;;;;;;2089164;28;20025;-81
2020/12/31 02:38:20;;;;;;;9.85;6.60;;;4.00;92.90;;;;;;2097464;28;20028;-81
2020/12/31 02:39:20;;;;;;;9.07;6.50;;;4.00;92.90;;;;;;2094030;28;20059;-81
2020/12/31 02:40:21;;;;;;;9.18;6.80;;;4.00;92.90;;;;;;2081132;28;20025;-81
2020/12/31 02:41:22;;;;;;;9.95;6.70;;;4.00;92.90;;;;;;2089299;28;20036;-81
2020/12/31 02:42:22;;;;;;;8.93;6.40;;;4.00;92.90;;;;;;2089160;28;20505;-81
2020/12/31 02:43:23;;;;;;;9.63;6.70;;;4.00;93.00;;;;;;2081580;28;20083;-81
2020/12/31 02:44:24;;;;;;;11.30;7.10;;;4.00;93.00;;;;;;2080881;28;20040;-81
2020/12/31 02:45:24;;;;;;;10.02;6.80;;;4.00;93.00;;;;;;2081023;28;20083;-81
2020/12/31 02:46:25;;;;;;;10.57;7.65;;;3.90;92.90;;;;;;2081632;28;20152;-81
2020/12/31 02:47:30;;;;;;;9.98;6.82;;;3.90;92.90;;;;;;2081390;28;20079;-81
2020/12/31 02:48:31;;;;;;;10.23;6.65;;;4.00;93.00;;;;;;2081583;28;20025;-81
2020/12/31 02:49:31;;;;;;;9.40;6.93;;;4.00;93.00;;;;;;2081469;28;20025;-81
2020/12/31 02:50:32;;;;;;;9.07;6.28;;;4.00;93.00;;;;;;2081661;28;20503;-81
2020/12/31 02:51:34;;;;;;;7.82;5.65;;;4.00;93.00;;;;;;2081570;28;20025;-81
2020/12/31 02:52:34;;;;;;;7.75;5.57;;;4.00;93.30;;;;;;2089206;28;20071;-79
2020/12/31 02:53:35;;;;;;;8.63;6.13;;;4.00;93.00;;;;;;2080812;28;20029;-79
2020/12/31 02:54:36;;;;;;;8.13;5.82;;;4.00;93.00;;;;;;2072716;28;20581;-80
2020/12/31 02:55:37;;;;;;;8.80;6.28;;;4.00;93.00;;;;;;2089212;28;20041;-79
2020/12/31 02:56:37;;;;;;;10.05;7.07;;;4.00;93.00;;;;;;2089233;28;20033;-80
2020/12/31 02:57:38;;;;;;;8.40;6.20;;;4.00;93.00;;;;;;2080794;28;20037;-79
2020/12/31 02:58:39;;;;;;;8.63;6.40;;;4.00;93.00;;;;;;2080874;28;20034;-79
2020/12/31 02:59:39;;;;;;;8.32;6.10;;;4.00;93.00;;;;;;2081261;28;20028;-80
2020/12/31 03:00:40;;;;;;;8.25;5.53;;;4.00;93.00;;;;;;2080900;28;20053;-80
2020/12/31 03:01:41;;;;;;;8.63;6.03;;;4.00;93.00;;;;;;2079396;28;20384;-79
2020/12/31 03:02:42;;;;;;;7.82;6.00;;;4.00;93.00;;;;;;2080937;28;20060;-79
2020/12/31 03:03:43;;;;;;;7.95;5.93;;;4.00;93.00;;;;;;2081518;28;20049;-80
2020/12/31 03:04:43;;;;;;;7.82;5.82;;;4.00;93.00;;;;;;2080524;28;20482;-79
2020/12/31 03:05:44;;;;;;;9.60;6.78;;;4.00;93.00;;;;;;2080855;28;20038;-79
2020/12/31 03:06:45;;;;;;;9.02;6.00;;;4.00;93.00;;;;;;2081487;28;20014;-79
2020/12/31 03:07:46;;;;;;;8.13;5.88;;;4.00;93.00;;;;;;2080815;28;20411;-79
2020/12/31 03:08:47;;;;;;;7.10;5.45;;;4.00;93.00;;;;;;2080785;28;20065;-79
2020/12/31 03:09:47;;;;;;;7.90;5.55;;;4.00;93.00;;;;;;2088462;28;20021;-79
2020/12/31 03:10:48;;;;;;;7.30;5.43;;;4.00;93.00;;;;;;2072717;28;20452;-80
2020/12/31 03:11:49;;;;;;;8.60;5.95;;;4.00;93.10;;;;;;2072613;28;20022;-79
2020/12/31 03:12:49;;;;;;;7.05;5.40;;;4.00;93.10;;;;;;2080812;28;20060;-79
2020/12/31 03:13:51;;;;;;;7.45;5.68;;;4.00;93.10;;;;;;2080802;28;20037;-79
2020/12/31 03:14:52;;;;;;;7.88;5.97;;;4.00;93.10;;;;;;2080683;28;20026;-80
2020/12/31 03:15:53;;;;;;;7.63;5.45;;;4.00;93.10;;;;;;2072684;28;20022;-79
2020/12/31 03:16:54;;;;;;;7.68;5.32;;;4.00;93.10;;;;;;2080706;28;20029;-80
2020/12/31 03:17:54;;;;;;;7.00;5.18;;;4.00;93.10;;;;;;2080635;28;20029;-79
2020/12/31 03:18:55;;;;;;;7.28;5.57;;;4.00;93.10;;;;;;2105665;28;20115;-78
2020/12/31 03:19:56;;;;;;;7.15;5.50;;;4.00;93.10;;;;;;2096488;28;20035;-80
2020/12/31 03:20:56;;;;;;;7.32;5.50;;;4.00;93.10;;;;;;2080672;28;20040;-79
2020/12/31 03:21:57;;;;;;;8.52;5.93;;;4.00;93.10;;;;;;2088903;28;20029;-79
2020/12/31 03:22:57;;;;;;;9.35;6.57;;;4.00;93.10;;;;;;2080509;28;20080;-80
2020/12/31 03:23:58;;;;;;;7.57;5.68;;;4.00;93.10;;;;;;2080689;28;20060;-79
2020/12/31 03:24:59;;;;;;;8.07;5.70;;;4.00;93.10;;;;;;2089020;28;20476;-79
2020/12/31 03:25:59;;;;;;;8.07;6.05;;;4.00;93.10;;;;;;2081256;28;20108;-79
2020/12/31 03:27:00;;;;;;;7.68;5.40;;;4.00;93.10;;;;;;2081359;28;20033;-79
2020/12/31 03:28:01;;;;;;;7.45;5.32;;;4.00;93.10;;;;;;2081329;28;20539;-79
2020/12/31 03:29:01;;;;;;;7.65;5.50;;;4.00;93.10;;;;;;2081302;28;20029;-79
2020/12/31 03:30:04;;;;;;;7.20;5.28;;;4.00;93.10;;;;;;2080589;28;20116;-79
2020/12/31 03:31:04;;;;;;;7.47;5.32;;;4.00;93.10;;;;;;2080678;28;20026;-79
2020/12/31 03:32:05;;;;;;;7.30;5.35;;;4.00;93.10;;;;;;2080713;28;20026;-79
2020/12/31 03:33:06;;;;;;;7.15;5.35;;;4.00;93.10;;;;;;2080657;28;20029;-79
2020/12/31 03:34:06;;;;;;;7.68;5.20;;;4.00;93.10;;;;;;2081217;28;20472;-79
2020/12/31 03:35:10;;;;;;;7.57;5.03;;;4.00;93.10;;;;;;2081084;28;20029;-80
2020/12/31 03:36:10;;;;;;;7.32;5.20;;;4.00;93.10;;;;;;2080583;28;20380;-79
2020/12/31 03:37:11;;;;;;;6.47;5.00;;;4.00;93.10;;;;;;2080628;28;20125;-79
2020/12/31 03:38:13;;;;;;;6.43;4.88;;;4.00;93.10;;;;;;2081272;28;20030;-79
2020/12/31 03:39:14;;;;;;;6.82;4.90;;;4.00;93.10;;;;;;2080639;28;20524;-79
2020/12/31 03:40:14;;;;;;;6.85;4.90;;;4.00;93.10;;;;;;2088841;28;20033;-79
2020/12/31 03:41:15;;;;;;;6.22;4.40;;;4.00;93.10;;;;;;2088791;28;20130;-80
2020/12/31 03:42:15;;;;;;;6.93;4.75;;;4.00;93.10;;;;;;2080702;28;20119;-79
2020/12/31 03:43:16;;;;;;;6.38;4.22;;;4.00;93.10;;;;;;2081418;28;20395;-79
2020/12/31 03:44:17;;;;;;;6.07;4.30;;;4.00;93.10;;;;;;2080423;28;20541;-79
2020/12/31 03:45:17;;;;;;;6.18;4.63;;;4.00;93.10;;;;;;2088814;28;20056;-79
2020/12/31 03:46:18;;;;;;;6.22;4.55;;;4.00;93.10;;;;;;2088816;28;20037;-80
2020/12/31 03:47:19;;;;;;;6.72;4.60;;;4.00;93.10;;;;;;2080701;28;20022;-79
2020/12/31 03:48:19;;;;;;;5.65;4.05;;;4.00;93.10;;;;;;2088813;28;20553;-79
2020/12/31 03:49:20;;;;;;;6.47;4.10;;;4.00;93.10;;;;;;2088884;28;20017;-79
2020/12/31 03:50:21;;;;;;;5.15;3.78;;;4.00;93.10;;;;;;2097096;28;20485;-80
2020/12/31 03:51:22;;;;;;;6.68;4.10;;;4.00;93.10;;;;;;2081139;28;20501;-80
2020/12/31 03:52:23;;;;;;;5.78;4.00;;;4.00;93.10;;;;;;2081170;28;20030;-80
2020/12/31 03:53:23;;;;;;;5.68;3.90;;;4.00;93.10;;;;;;2081182;28;20036;-79
2020/12/31 03:54:24;;;;;;;5.57;4.03;;;4.00;93.10;;;;;;2096986;28;20539;-79
2020/12/31 03:55:25;;;;;;;6.57;4.03;;;4.00;93.10;;;;;;2080491;28;20042;-80
2020/12/31 03:56:25;;;;;;;5.53;3.83;;;4.00;93.10;;;;;;2080613;28;20116;-78
2020/12/31 03:57:26;;;;;;;5.97;3.97;;;4.00;93.10;;;;;;2096927;28;20420;-80
2020/12/31 03:58:27;;;;;;;5.20;3.70;;;4.00;93.10;;;;;;2081136;28;20087;-80
2020/12/31 03:59:27;;;;;;;5.60;3.67;;;4.00;93.10;;;;;;2081149;28;20044;-79
2020/12/31 04:00:28;;;;;;;5.22;3.85;;;4.00;93.10;;;;;;2081376;28;20041;-80
2020/12/31 04:01:29;;;;;;;5.22;3.60;;;4.00;93.10;;;;;;2088815;28;20091;-79
2020/12/31 04:02:30;;;;;;;6.10;4.35;;;4.00;93.10;;;;;;2088629;28;20018;-80
2020/12/31 04:03:32;;;;;;;5.43;3.60;;;4.00;93.10;;;;;;2081218;28;20116;-79
2020/12/31 04:04:33;;;;;;;6.30;3.83;;;4.00;93.10;;;;;;2080996;28;20025;-80
2020/12/31 04:05:33;;;;;;;5.38;3.55;;;4.00;93.10;;;;;;2081057;28;20502;-79
2020/12/31 04:06:34;;;;;;;4.93;3.40;;;4.00;93.10;;;;;;2088742;28;20107;-79
2020/12/31 04:07:35;;;;;;;5.00;3.50;;;4.00;93.10;;;;;;2088856;28;20033;-79
2020/12/31 04:08:35;;;;;;;5.10;3.50;;;4.00;93.10;;;;;;2081236;28;20045;-79
2020/12/31 04:09:36;;;;;;;4.97;3.53;;;4.00;93.10;;;;;;2096805;28;20036;-80
2020/12/31 04:10:37;;;;;;;4.82;3.47;;;4.00;93.10;;;;;;2080493;28;20614;-79
2020/12/31 04:11:37;;;;;;;4.78;3.40;;;4.00;93.10;;;;;;2072365;28;20129;-79
2020/12/31 04:12:38;;;;;;;5.72;3.58;;;4.00;93.10;;;;;;2080560;28;20068;-79
2020/12/31 04:13:39;;;;;;;4.90;3.60;;;4.00;93.10;;;;;;2088408;28;20119;-79
2020/12/31 04:14:39;;;;;;;5.15;3.40;;;4.00;93.10;;;;;;2088695;28;20021;-80
2020/12/31 04:15:40;;;;;;;5.75;3.53;;;4.00;93.10;;;;;;2081156;28;20029;-79
2020/12/31 04:16:40;;;;;;;6.13;3.63;;;4.00;93.10;;;;;;2088669;28;20581;-80
2020/12/31 04:17:41;;;;;;;4.80;3.38;;;4.00;93.10;;;;;;2088629;28;20080;-79
2020/12/31 04:18:42;;;;;;;4.80;3.30;;;4.00;93.10;;;;;;2080241;28;20049;-79
2020/12/31 04:19:42;;;;;;;4.85;3.47;;;4.00;93.10;;;;;;2080394;28;20022;-80
2020/12/31 04:20:45;;;;;;;6.88;3.75;;;4.00;93.10;;;;;;2097186;28;20070;-79
2020/12/31 04:21:45;;;;;;;6.43;3.50;;;4.00;93.00;;;;;;2080253;28;20029;-79
2020/12/31 04:22:46;;;;;;;4.95;3.60;;;4.00;93.00;;;;;;2072668;28;20463;-80
2020/12/31 04:23:48;;;;;;;4.85;3.47;;;4.00;93.00;;;;;;2072156;28;20029;-79
2020/12/31 04:24:50;;;;;;;4.47;3.13;;;3.90;93.00;;;;;;2072532;28;20030;-80
2020/12/31 04:25:51;;;;;;;4.85;3.15;;;4.00;93.10;;;;;;2081105;28;20032;-79
2020/12/31 04:26:52;;;;;;;4.65;3.25;;;4.00;93.10;;;;;;2080279;28;20030;-80
2020/12/31 04:27:53;;;;;;;5.00;3.40;;;4.00;93.10;;;;;;2080518;28;20025;-79
2020/12/31 04:28:53;;;;;;;5.60;3.72;;;4.00;93.10;;;;;;2080455;28;20029;-79
2020/12/31 04:29:54;;;;;;;4.78;3.10;;;4.00;93.10;;;;;;2080556;28;20407;-80
2020/12/31 04:30:55;;;;;;;4.50;3.15;;;4.00;93.10;;;;;;2073060;28;20125;-79
2020/12/31 04:31:56;;;;;;;4.75;3.33;;;4.00;93.10;;;;;;2082113;28;20018;-80
2020/12/31 04:32:56;;;;;;;4.22;3.10;;;4.00;93.10;;;;;;2082185;28;20042;-79
2020/12/31 04:33:57;;;;;;;5.57;3.70;;;4.00;93.10;;;;;;2081650;28;20026;-79
2020/12/31 04:34:58;;;;;;;5.25;3.40;;;4.00;93.10;;;;;;2081903;28;20052;-79
2020/12/31 04:35:58;;;;;;;5.28;3.45;;;4.00;93.00;;;;;;2073814;28;20472;-79
2020/12/31 04:36:59;;;;;;;4.22;3.03;;;4.00;93.00;;;;;;2081842;28;20068;-79
2020/12/31 04:37:59;;;;;;;4.53;3.28;;;4.00;93.00;;;;;;2090139;28;20033;-80
2020/12/31 04:39:00;;;;;;;4.78;3.50;;;4.00;93.10;;;;;;2082061;28;20056;-80
2020/12/31 04:40:01;;;;;;;5.25;3.38;;;4.00;93.00;;;;;;2082705;28;20029;-79
2020/12/31 04:41:02;;;;;;;4.88;3.20;;;4.00;93.00;;;;;;2081951;28;20316;-79
2020/12/31 04:42:05;;;;;;;4.68;3.03;;;4.00;93.00;;;;;;2081752;28;20441;-79
2020/12/31 04:43:05;;;;;;;4.88;3.13;;;4.00;93.00;;;;;;2082575;28;20120;-79
2020/12/31 04:44:06;;;;;;;4.40;3.38;;;4.00;93.00;;;;;;2090240;28;20486;-79
2020/12/31 04:45:07;;;;;;;6.35;3.08;;;4.00;93.00;;;;;;2090101;28;20044;-79
2020/12/31 04:46:13;;;;;;;4.70;3.08;;;4.00;93.00;;;;;;2098444;28;20033;-79
2020/12/31 04:47:20;;;;;;;4.70;3.03;;;4.00;93.00;;;;;;2097283;28;20020;-79
2020/12/31 04:48:38;;;;;;;4.03;2.80;;;4.00;93.00;;;;;;2082455;28;20084;-80
2020/12/31 04:49:50;;;;;;;4.10;2.70;;;4.00;93.00;;;;;;2081868;28;20112;-80
2020/12/31 04:50:57;;;;;;;4.40;2.90;;;4.00;93.00;;;;;;2082237;28;20022;-79
2020/12/31 04:51:59;;;;;;;4.35;2.92;;;4.00;93.00;;;;;;2091528;28;20013;-79
2020/12/31 04:53:03;;;;;;;4.32;2.90;;;4.00;93.00;;;;;;2084549;28;20040;-79
2020/12/31 04:54:08;;;;;;;4.38;2.50;;;4.00;93.00;;;;;;2084700;28;20010;-80
2020/12/31 04:55:09;;;;;;;4.25;2.80;;;4.00;93.00;;;;;;2084674;28;20034;-81
2020/12/31 04:56:13;;;;;;;4.63;2.80;;;4.00;93.00;;;;;;2076202;28;20026;-81
2020/12/31 04:57:14;;;;;;;3.78;2.65;;;4.00;93.00;;;;;;2084582;28;20036;-79
2020/12/31 04:58:15;;;;;;;5.40;3.47;;;4.00;93.00;;;;;;2102206;28;20114;-79
2020/12/31 04:59:16;;;;;;;4.72;3.20;;;4.00;93.00;;;;;;2098604;28;20099;-79
2020/12/31 05:00:17;;;;;;;4.35;2.83;;;4.00;93.00;;;;;;2090504;28;20037;-79
2020/12/31 05:01:17;;;;;;;3.83;2.67;;;4.00;93.00;;;;;;2091055;28;20398;-79
2020/12/31 05:02:18;;;;;;;4.95;2.85;;;4.00;93.00;;;;;;2098577;28;20035;-78
2020/12/31 05:03:18;;;;;;;4.85;2.92;;;4.00;93.00;;;;;;2117063;28;20028;-79
2020/12/31 05:04:22;;;;;;;5.53;2.88;;;4.00;93.00;;;;;;2116960;28;20034;-79
2020/12/31 05:05:24;;;;;;;4.57;2.80;;;4.00;93.00;;;;;;2099921;28;20082;-79
2020/12/31 05:06:27;;;;;;;6.10;3.22;;;4.00;93.00;;;;;;2100513;28;20037;-79
2020/12/31 05:07:28;;;;;;;4.28;3.03;;;4.00;93.00;;;;;;2095051;28;20545;-79
2020/12/31 05:08:29;;;;;;;4.47;2.90;;;4.00;93.00;;;;;;2090796;28;20078;-79
2020/12/31 05:09:30;;;;;;;3.90;2.63;;;3.90;93.00;;;;;;2091035;28;20123;-79
2020/12/31 05:10:32;;;;;;;4.20;2.70;;;4.00;93.00;;;;;;2098347;28;20502;-79
2020/12/31 05:11:46;;;;;;;4.60;3.03;;;4.00;93.00;;;;;;2098381;28;20462;-79
2020/12/31 05:13:06;;;;;;;4.50;3.30;;;3.90;93.00;;;;;;2090077;28;20108;-79
2020/12/31 05:14:06;;;;;;;5.47;3.10;;;3.90;93.00;;;;;;2090404;28;20021;-79
2020/12/31 05:15:07;;;;;;;4.68;2.85;;;3.90;93.00;;;;;;2098317;28;20406;-79
2020/12/31 05:16:08;;;;;;;4.53;2.70;;;3.90;93.00;;;;;;2090006;28;20029;-79
2020/12/31 05:17:22;;;;;;;5.90;3.28;;;3.90;93.00;;;;;;2089959;28;20403;-79
2020/12/31 05:18:32;;;;;;;4.28;2.72;;;3.90;93.00;;;;;;2090021;28;20087;-79
2020/12/31 05:19:33;;;;;;;4.10;2.70;;;3.90;93.00;;;;;;2099324;28;20039;-80
2020/12/31 05:20:34;;;;;;;4.53;2.88;;;3.90;93.00;;;;;;2089299;28;20116;-79
2020/12/31 05:21:34;;;;;;;4.47;2.70;;;3.90;93.00;;;;;;2081624;28;20395;-79
2020/12/31 05:22:35;;;;;;;3.95;2.50;;;3.90;93.00;;;;;;2090349;28;20025;-79
2020/12/31 05:23:36;;;;;;;4.30;2.85;;;4.00;93.00;;;;;;2091068;28;20049;-77